sensor_id;sensor_type;location;lat;lon;timestamp;temperature;humidity
17495;DHT22;8864;51.970;4.614;2023-09-18T00:00:15;23.60;81.90
17495;DHT22;8864;51.970;4.614;2023-09-18T00:02:43;23.50;81.90
17495;DHT22;8864;51.970;4.614;2023-09-18T00:05:11;23.60;82.60
17495;DHT22;8864;51.970;4.614;2023-09-18T00:07:40;23.60;81.70
17495;DHT22;8864;51.970;4.614;2023-09-18T00:10:07;23.60;81.70
17495;DHT22;8864;51.970;4.614;2023-09-18T00:12:35;23.50;81.70
17495;DHT22;8864;51.970;4.614;2023-09-18T00:15:05;23.60;81.70
17495;DHT22;8864;51.970;4.614;2023-09-18T00:17:34;23.60;81.80
17495;DHT22;8864;51.970;4.614;2023-09-18T00:20:01;23.60;81.60
17495;DHT22;8864;51.970;4.614;2023-09-18T00:22:32;23.60;81.60
17495;DHT22;8864;51.970;4.614;2023-09-18T00:24:59;23.60;81.60
17495;DHT22;8864;51.970;4.614;2023-09-18T00:27:27;23.60;81.60
17495;DHT22;8864;51.970;4.614;2023-09-18T00:29:53;23.60;81.60
17495;DHT22;8864;51.970;4.614;2023-09-18T00:32:20;23.60;81.60
17495;DHT22;8864;51.970;4.614;2023-09-18T00:34:47;23.60;81.60
17495;DHT22;8864;51.970;4.614;2023-09-18T00:37:14;23.60;81.60
17495;DHT22;8864;51.970;4.614;2023-09-18T00:39:43;23.60;81.50
17495;DHT22;8864;51.970;4.614;2023-09-18T00:42:10;23.60;81.40
17495;DHT22;8864;51.970;4.614;2023-09-18T00:44:39;23.60;81.50
17495;DHT22;8864;51.970;4.614;2023-09-18T00:47:07;23.60;81.40
17495;DHT22;8864;51.970;4.614;2023-09-18T00:49:35;23.60;81.40
17495;DHT22;8864;51.970;4.614;2023-09-18T00:52:03;23.60;81.40
17495;DHT22;8864;51.970;4.614;2023-09-18T00:54:31;23.60;81.50
17495;DHT22;8864;51.970;4.614;2023-09-18T00:57:01;23.60;81.60
17495;DHT22;8864;51.970;4.614;2023-09-18T00:59:29;23.60;81.60
17495;DHT22;8864;51.970;4.614;2023-09-18T01:01:56;23.60;81.70
17495;DHT22;8864;51.970;4.614;2023-09-18T01:04:26;23.60;81.80
17495;DHT22;8864;51.970;4.614;2023-09-18T01:06:54;23.60;81.60
17495;DHT22;8864;51.970;4.614;2023-09-18T01:09:22;23.60;81.60
17495;DHT22;8864;51.970;4.614;2023-09-18T01:11:54;23.60;81.60
17495;DHT22;8864;51.970;4.614;2023-09-18T01:14:28;23.60;81.70
17495;DHT22;8864;51.970;4.614;2023-09-18T01:16:58;23.60;81.60
17495;DHT22;8864;51.970;4.614;2023-09-18T01:19:40;23.60;81.60
17495;DHT22;8864;51.970;4.614;2023-09-18T01:22:08;23.60;81.60
17495;DHT22;8864;51.970;4.614;2023-09-18T01:24:38;23.60;81.60
17495;DHT22;8864;51.970;4.614;2023-09-18T01:27:08;23.60;81.60
17495;DHT22;8864;51.970;4.614;2023-09-18T01:29:35;23.60;81.40
17495;DHT22;8864;51.970;4.614;2023-09-18T01:32:02;23.60;81.40
17495;DHT22;8864;51.970;4.614;2023-09-18T01:34:32;23.60;81.40
17495;DHT22;8864;51.970;4.614;2023-09-18T01:37:02;23.60;81.30
17495;DHT22;8864;51.970;4.614;2023-09-18T01:39:31;23.60;81.30
17495;DHT22;8864;51.970;4.614;2023-09-18T01:42:01;23.60;81.30
17495;DHT22;8864;51.970;4.614;2023-09-18T01:44:29;23.60;81.30
17495;DHT22;8864;51.970;4.614;2023-09-18T01:46:58;23.60;81.30
17495;DHT22;8864;51.970;4.614;2023-09-18T01:49:29;23.60;81.30
17495;DHT22;8864;51.970;4.614;2023-09-18T01:51:56;23.60;81.30
17495;DHT22;8864;51.970;4.614;2023-09-18T01:54:24;23.60;81.30
17495;DHT22;8864;51.970;4.614;2023-09-18T01:56:51;23.60;81.30
17495;DHT22;8864;51.970;4.614;2023-09-18T01:59:21;23.60;81.40
17495;DHT22;8864;51.970;4.614;2023-09-18T02:01:48;23.60;81.40
17495;DHT22;8864;51.970;4.614;2023-09-18T02:04:15;23.60;81.40
17495;DHT22;8864;51.970;4.614;2023-09-18T02:06:42;23.60;81.40
17495;DHT22;8864;51.970;4.614;2023-09-18T02:09:09;23.60;81.40
17495;DHT22;8864;51.970;4.614;2023-09-18T02:11:37;23.60;81.50
17495;DHT22;8864;51.970;4.614;2023-09-18T02:14:05;23.60;81.40
17495;DHT22;8864;51.970;4.614;2023-09-18T02:16:34;23.60;81.50
17495;DHT22;8864;51.970;4.614;2023-09-18T02:19:02;23.60;81.60
17495;DHT22;8864;51.970;4.614;2023-09-18T02:21:29;23.50;81.50
17495;DHT22;8864;51.970;4.614;2023-09-18T02:23:56;23.60;81.60
17495;DHT22;8864;51.970;4.614;2023-09-18T02:26:24;23.60;81.60
17495;DHT22;8864;51.970;4.614;2023-09-18T02:28:52;23.60;81.60
17495;DHT22;8864;51.970;4.614;2023-09-18T02:31:20;23.60;81.60
17495;DHT22;8864;51.970;4.614;2023-09-18T02:33:48;23.60;81.60
17495;DHT22;8864;51.970;4.614;2023-09-18T02:36:15;23.60;81.60
17495;DHT22;8864;51.970;4.614;2023-09-18T02:38:42;23.60;81.60
17495;DHT22;8864;51.970;4.614;2023-09-18T02:41:09;23.70;81.60
17495;DHT22;8864;51.970;4.614;2023-09-18T02:43:36;23.60;81.60
17495;DHT22;8864;51.970;4.614;2023-09-18T02:46:03;23.60;81.60
17495;DHT22;8864;51.970;4.614;2023-09-18T02:48:31;23.60;81.60
17495;DHT22;8864;51.970;4.614;2023-09-18T02:50:59;23.60;81.70
17495;DHT22;8864;51.970;4.614;2023-09-18T02:53:26;23.60;81.60
17495;DHT22;8864;51.970;4.614;2023-09-18T02:55:55;23.60;81.60
17495;DHT22;8864;51.970;4.614;2023-09-18T02:58:23;23.70;81.90
17495;DHT22;8864;51.970;4.614;2023-09-18T03:00:52;23.60;81.90
17495;DHT22;8864;51.970;4.614;2023-09-18T03:03:20;23.70;82.00
17495;DHT22;8864;51.970;4.614;2023-09-18T03:05:46;23.70;82.00
17495;DHT22;8864;51.970;4.614;2023-09-18T03:08:15;23.70;82.00
17495;DHT22;8864;51.970;4.614;2023-09-18T03:10:43;23.70;82.00
17495;DHT22;8864;51.970;4.614;2023-09-18T03:13:13;23.70;82.00
17495;DHT22;8864;51.970;4.614;2023-09-18T03:15:44;23.60;82.00
17495;DHT22;8864;51.970;4.614;2023-09-18T03:18:13;23.70;82.20
17495;DHT22;8864;51.970;4.614;2023-09-18T03:20:40;23.60;82.10
17495;DHT22;8864;51.970;4.614;2023-09-18T03:23:07;23.70;82.20
17495;DHT22;8864;51.970;4.614;2023-09-18T03:25:35;23.60;82.10
17495;DHT22;8864;51.970;4.614;2023-09-18T03:28:03;23.60;82.00
17495;DHT22;8864;51.970;4.614;2023-09-18T03:30:30;23.60;82.00
17495;DHT22;8864;51.970;4.614;2023-09-18T03:32:57;23.70;82.20
17495;DHT22;8864;51.970;4.614;2023-09-18T03:35:24;23.70;82.30
17495;DHT22;8864;51.970;4.614;2023-09-18T03:37:52;23.60;82.30
17495;DHT22;8864;51.970;4.614;2023-09-18T03:40:20;23.70;82.40
17495;DHT22;8864;51.970;4.614;2023-09-18T03:42:49;23.70;82.50
17495;DHT22;8864;51.970;4.614;2023-09-18T03:45:16;23.60;82.40
17495;DHT22;8864;51.970;4.614;2023-09-18T03:47:44;23.70;82.50
17495;DHT22;8864;51.970;4.614;2023-09-18T03:50:12;23.70;82.50
17495;DHT22;8864;51.970;4.614;2023-09-18T03:52:39;23.70;82.60
17495;DHT22;8864;51.970;4.614;2023-09-18T03:55:07;23.60;82.70
17495;DHT22;8864;51.970;4.614;2023-09-18T03:57:34;23.60;82.70
17495;DHT22;8864;51.970;4.614;2023-09-18T04:00:04;23.60;82.80
17495;DHT22;8864;51.970;4.614;2023-09-18T04:02:32;23.70;82.90
17495;DHT22;8864;51.970;4.614;2023-09-18T04:05:00;23.60;82.80
17495;DHT22;8864;51.970;4.614;2023-09-18T04:07:27;23.70;83.00
17495;DHT22;8864;51.970;4.614;2023-09-18T04:09:54;23.60;82.90
17495;DHT22;8864;51.970;4.614;2023-09-18T04:12:21;23.60;83.10
17495;DHT22;8864;51.970;4.614;2023-09-18T04:14:48;23.70;83.30
17495;DHT22;8864;51.970;4.614;2023-09-18T04:17:16;23.60;83.30
17495;DHT22;8864;51.970;4.614;2023-09-18T04:19:44;23.70;83.20
17495;DHT22;8864;51.970;4.614;2023-09-18T04:22:12;23.60;83.20
17495;DHT22;8864;51.970;4.614;2023-09-18T04:24:38;23.70;83.20
17495;DHT22;8864;51.970;4.614;2023-09-18T04:27:06;23.70;83.30
17495;DHT22;8864;51.970;4.614;2023-09-18T04:29:33;23.70;83.50
17495;DHT22;8864;51.970;4.614;2023-09-18T04:32:02;23.70;83.60
17495;DHT22;8864;51.970;4.614;2023-09-18T04:34:31;23.70;83.40
17495;DHT22;8864;51.970;4.614;2023-09-18T04:36:58;23.70;83.40
17495;DHT22;8864;51.970;4.614;2023-09-18T04:39:26;23.50;83.30
17495;DHT22;8864;51.970;4.614;2023-09-18T04:41:55;23.70;83.40
17495;DHT22;8864;51.970;4.614;2023-09-18T04:44:22;23.80;84.30
17495;DHT22;8864;51.970;4.614;2023-09-18T04:46:49;23.70;83.50
17495;DHT22;8864;51.970;4.614;2023-09-18T04:49:16;23.70;83.60
17495;DHT22;8864;51.970;4.614;2023-09-18T04:51:44;23.70;83.70
17495;DHT22;8864;51.970;4.614;2023-09-18T04:54:11;23.70;83.60
17495;DHT22;8864;51.970;4.614;2023-09-18T04:56:38;23.70;84.50
17495;DHT22;8864;51.970;4.614;2023-09-18T04:59:05;23.70;83.70
17495;DHT22;8864;51.970;4.614;2023-09-18T05:01:32;23.70;83.90
17495;DHT22;8864;51.970;4.614;2023-09-18T05:03:58;23.70;84.70
17495;DHT22;8864;51.970;4.614;2023-09-18T05:06:25;23.70;84.10
17495;DHT22;8864;51.970;4.614;2023-09-18T05:08:54;23.70;84.20
17495;DHT22;8864;51.970;4.614;2023-09-18T05:11:21;23.70;84.20
17495;DHT22;8864;51.970;4.614;2023-09-18T05:13:48;23.70;84.30
17495;DHT22;8864;51.970;4.614;2023-09-18T05:16:15;23.70;84.30
17495;DHT22;8864;51.970;4.614;2023-09-18T05:18:43;23.70;84.30
17495;DHT22;8864;51.970;4.614;2023-09-18T05:21:10;23.70;84.40
17495;DHT22;8864;51.970;4.614;2023-09-18T05:23:37;23.70;84.40
17495;DHT22;8864;51.970;4.614;2023-09-18T05:26:05;23.70;84.50
17495;DHT22;8864;51.970;4.614;2023-09-18T05:28:32;23.60;84.40
17495;DHT22;8864;51.970;4.614;2023-09-18T05:30:59;23.70;84.60
17495;DHT22;8864;51.970;4.614;2023-09-18T05:33:26;23.70;84.60
17495;DHT22;8864;51.970;4.614;2023-09-18T05:35:52;23.60;84.50
17495;DHT22;8864;51.970;4.614;2023-09-18T05:38:20;23.70;84.60
17495;DHT22;8864;51.970;4.614;2023-09-18T05:40:47;23.60;84.50
17495;DHT22;8864;51.970;4.614;2023-09-18T05:43:15;23.60;84.40
17495;DHT22;8864;51.970;4.614;2023-09-18T05:45:43;23.60;84.30
17495;DHT22;8864;51.970;4.614;2023-09-18T05:48:10;23.60;84.30
17495;DHT22;8864;51.970;4.614;2023-09-18T05:50:38;23.70;84.50
17495;DHT22;8864;51.970;4.614;2023-09-18T05:53:06;23.60;84.40
17495;DHT22;8864;51.970;4.614;2023-09-18T05:55:34;23.60;84.50
17495;DHT22;8864;51.970;4.614;2023-09-18T05:58:01;23.70;84.60
17495;DHT22;8864;51.970;4.614;2023-09-18T06:00:31;23.70;84.60
17495;DHT22;8864;51.970;4.614;2023-09-18T06:02:58;23.70;84.60
17495;DHT22;8864;51.970;4.614;2023-09-18T06:05:25;23.60;84.50
17495;DHT22;8864;51.970;4.614;2023-09-18T06:07:52;23.60;84.50
17495;DHT22;8864;51.970;4.614;2023-09-18T06:10:19;23.60;84.50
17495;DHT22;8864;51.970;4.614;2023-09-18T06:12:46;23.70;84.50
17495;DHT22;8864;51.970;4.614;2023-09-18T06:15:13;23.60;84.60
17495;DHT22;8864;51.970;4.614;2023-09-18T06:17:43;23.60;84.70
17495;DHT22;8864;51.970;4.614;2023-09-18T06:20:11;23.60;84.70
17495;DHT22;8864;51.970;4.614;2023-09-18T06:22:40;23.60;84.80
17495;DHT22;8864;51.970;4.614;2023-09-18T06:25:07;23.60;84.90
17495;DHT22;8864;51.970;4.614;2023-09-18T06:27:36;23.60;85.70
17495;DHT22;8864;51.970;4.614;2023-09-18T06:30:04;23.60;85.10
17495;DHT22;8864;51.970;4.614;2023-09-18T06:32:31;23.60;85.20
17495;DHT22;8864;51.970;4.614;2023-09-18T06:35:00;23.60;85.30
17495;DHT22;8864;51.970;4.614;2023-09-18T06:37:27;23.60;85.30
17495;DHT22;8864;51.970;4.614;2023-09-18T06:39:55;23.60;85.40
17495;DHT22;8864;51.970;4.614;2023-09-18T06:42:22;23.60;85.40
17495;DHT22;8864;51.970;4.614;2023-09-18T06:44:49;23.60;85.60
17495;DHT22;8864;51.970;4.614;2023-09-18T06:47:16;23.60;85.60
17495;DHT22;8864;51.970;4.614;2023-09-18T06:49:43;23.60;85.60
17495;DHT22;8864;51.970;4.614;2023-09-18T06:52:11;23.60;85.70
17495;DHT22;8864;51.970;4.614;2023-09-18T06:54:38;23.60;85.80
17495;DHT22;8864;51.970;4.614;2023-09-18T06:57:06;23.60;85.90
17495;DHT22;8864;51.970;4.614;2023-09-18T06:59:33;23.60;85.90
17495;DHT22;8864;51.970;4.614;2023-09-18T07:02:00;23.60;86.00
17495;DHT22;8864;51.970;4.614;2023-09-18T07:04:27;23.60;85.90
17495;DHT22;8864;51.970;4.614;2023-09-18T07:06:54;23.60;86.00
17495;DHT22;8864;51.970;4.614;2023-09-18T07:09:24;23.60;85.90
17495;DHT22;8864;51.970;4.614;2023-09-18T07:11:51;23.60;85.90
17495;DHT22;8864;51.970;4.614;2023-09-18T07:14:18;23.60;85.90
17495;DHT22;8864;51.970;4.614;2023-09-18T07:17:21;23.60;85.70
17495;DHT22;8864;51.970;4.614;2023-09-18T07:19:54;23.60;86.10
17495;DHT22;8864;51.970;4.614;2023-09-18T07:22:25;23.60;85.90
17495;DHT22;8864;51.970;4.614;2023-09-18T07:24:53;23.60;85.90
17495;DHT22;8864;51.970;4.614;2023-09-18T07:27:20;23.70;85.90
17495;DHT22;8864;51.970;4.614;2023-09-18T07:29:47;23.70;85.90
17495;DHT22;8864;51.970;4.614;2023-09-18T07:32:15;23.70;85.90
17495;DHT22;8864;51.970;4.614;2023-09-18T07:34:42;23.60;85.70
17495;DHT22;8864;51.970;4.614;2023-09-18T07:37:09;23.70;85.80
17495;DHT22;8864;51.970;4.614;2023-09-18T07:39:36;23.60;85.70
17495;DHT22;8864;51.970;4.614;2023-09-18T07:42:06;23.60;85.70
17495;DHT22;8864;51.970;4.614;2023-09-18T07:44:34;23.70;85.90
17495;DHT22;8864;51.970;4.614;2023-09-18T07:47:02;23.60;85.80
17495;DHT22;8864;51.970;4.614;2023-09-18T07:49:29;23.70;85.70
17495;DHT22;8864;51.970;4.614;2023-09-18T07:51:56;23.70;85.70
17495;DHT22;8864;51.970;4.614;2023-09-18T07:54:23;23.50;85.60
17495;DHT22;8864;51.970;4.614;2023-09-18T07:56:50;23.70;85.70
17495;DHT22;8864;51.970;4.614;2023-09-18T07:59:19;23.70;85.60
17495;DHT22;8864;51.970;4.614;2023-09-18T08:01:46;23.70;85.60
17495;DHT22;8864;51.970;4.614;2023-09-18T08:04:13;23.60;85.40
17495;DHT22;8864;51.970;4.614;2023-09-18T08:06:41;23.70;85.50
17495;DHT22;8864;51.970;4.614;2023-09-18T08:09:08;23.70;85.40
17495;DHT22;8864;51.970;4.614;2023-09-18T08:11:39;23.70;85.40
17495;DHT22;8864;51.970;4.614;2023-09-18T08:14:07;23.70;85.30
17495;DHT22;8864;51.970;4.614;2023-09-18T08:16:38;23.70;85.40
17495;DHT22;8864;51.970;4.614;2023-09-18T08:19:05;23.70;85.40
17495;DHT22;8864;51.970;4.614;2023-09-18T08:21:32;23.70;85.40
17495;DHT22;8864;51.970;4.614;2023-09-18T08:23:59;23.70;85.40
17495;DHT22;8864;51.970;4.614;2023-09-18T08:26:26;23.70;85.40
17495;DHT22;8864;51.970;4.614;2023-09-18T08:28:54;23.70;85.40
17495;DHT22;8864;51.970;4.614;2023-09-18T08:31:21;23.70;85.40
17495;DHT22;8864;51.970;4.614;2023-09-18T08:33:52;23.70;85.40
17495;DHT22;8864;51.970;4.614;2023-09-18T08:36:19;23.70;85.50
17495;DHT22;8864;51.970;4.614;2023-09-18T08:38:50;23.70;85.50
17495;DHT22;8864;51.970;4.614;2023-09-18T08:41:18;23.70;85.60
17495;DHT22;8864;51.970;4.614;2023-09-18T08:43:48;23.70;85.50
17495;DHT22;8864;51.970;4.614;2023-09-18T08:46:16;23.70;85.50
17495;DHT22;8864;51.970;4.614;2023-09-18T08:48:45;23.70;85.60
17495;DHT22;8864;51.970;4.614;2023-09-18T08:51:15;23.70;85.50
17495;DHT22;8864;51.970;4.614;2023-09-18T08:53:43;23.80;85.50
17495;DHT22;8864;51.970;4.614;2023-09-18T08:56:12;23.70;85.40
17495;DHT22;8864;51.970;4.614;2023-09-18T08:58:43;23.70;85.40
17495;DHT22;8864;51.970;4.614;2023-09-18T09:01:11;23.70;85.40
17495;DHT22;8864;51.970;4.614;2023-09-18T09:03:40;23.80;85.40
17495;DHT22;8864;51.970;4.614;2023-09-18T09:06:08;23.80;85.40
17495;DHT22;8864;51.970;4.614;2023-09-18T09:08:37;23.80;85.40
17495;DHT22;8864;51.970;4.614;2023-09-18T09:11:05;23.80;85.40
17495;DHT22;8864;51.970;4.614;2023-09-18T09:13:32;23.80;85.30
17495;DHT22;8864;51.970;4.614;2023-09-18T09:16:00;23.70;85.20
17495;DHT22;8864;51.970;4.614;2023-09-18T09:18:28;23.80;85.20
17495;DHT22;8864;51.970;4.614;2023-09-18T09:20:58;23.70;85.10
17495;DHT22;8864;51.970;4.614;2023-09-18T09:23:26;23.80;84.80
17495;DHT22;8864;51.970;4.614;2023-09-18T09:26:12;23.70;84.60
17495;DHT22;8864;51.970;4.614;2023-09-18T09:28:39;23.70;84.50
17495;DHT22;8864;51.970;4.614;2023-09-18T09:31:09;23.80;84.40
17495;DHT22;8864;51.970;4.614;2023-09-18T09:33:37;23.70;84.30
17495;DHT22;8864;51.970;4.614;2023-09-18T09:36:09;23.80;84.20
17495;DHT22;8864;51.970;4.614;2023-09-18T09:38:36;23.80;84.10
17495;DHT22;8864;51.970;4.614;2023-09-18T09:41:06;23.70;83.90
17495;DHT22;8864;51.970;4.614;2023-09-18T09:43:35;23.80;83.90
17495;DHT22;8864;51.970;4.614;2023-09-18T09:46:03;23.80;83.80
17495;DHT22;8864;51.970;4.614;2023-09-18T09:48:30;23.80;83.70
17495;DHT22;8864;51.970;4.614;2023-09-18T09:50:59;23.80;83.70
17495;DHT22;8864;51.970;4.614;2023-09-18T09:53:43;23.80;83.70
17495;DHT22;8864;51.970;4.614;2023-09-18T09:56:15;23.80;83.60
17495;DHT22;8864;51.970;4.614;2023-09-18T09:59:00;23.80;83.60
17495;DHT22;8864;51.970;4.614;2023-09-18T10:01:30;23.80;83.60
17495;DHT22;8864;51.970;4.614;2023-09-18T10:03:58;23.80;83.50
17495;DHT22;8864;51.970;4.614;2023-09-18T10:06:27;23.80;83.60
17495;DHT22;8864;51.970;4.614;2023-09-18T10:08:57;23.80;83.50
17495;DHT22;8864;51.970;4.614;2023-09-18T10:11:27;23.80;83.40
17495;DHT22;8864;51.970;4.614;2023-09-18T10:13:58;23.80;83.40
17495;DHT22;8864;51.970;4.614;2023-09-18T10:16:28;23.80;83.30
17495;DHT22;8864;51.970;4.614;2023-09-18T10:19:05;23.80;83.30
17495;DHT22;8864;51.970;4.614;2023-09-18T10:21:41;23.80;83.20
17495;DHT22;8864;51.970;4.614;2023-09-18T10:24:34;23.80;83.10
17495;DHT22;8864;51.970;4.614;2023-09-18T10:27:05;23.80;83.10
17495;DHT22;8864;51.970;4.614;2023-09-18T10:29:37;23.80;83.00
17495;DHT22;8864;51.970;4.614;2023-09-18T10:32:06;23.80;82.80
17495;DHT22;8864;51.970;4.614;2023-09-18T10:34:34;23.80;82.80
17495;DHT22;8864;51.970;4.614;2023-09-18T10:37:02;23.80;82.70
17495;DHT22;8864;51.970;4.614;2023-09-18T10:39:35;23.80;82.70
17495;DHT22;8864;51.970;4.614;2023-09-18T10:42:07;23.80;83.40
17495;DHT22;8864;51.970;4.614;2023-09-18T10:44:35;23.80;83.70
17495;DHT22;8864;51.970;4.614;2023-09-18T10:47:03;23.80;84.30
17495;DHT22;8864;51.970;4.614;2023-09-18T10:49:31;23.80;84.00
17495;DHT22;8864;51.970;4.614;2023-09-18T10:52:01;23.80;83.60
17495;DHT22;8864;51.970;4.614;2023-09-18T10:54:30;23.90;83.30
17495;DHT22;8864;51.970;4.614;2023-09-18T10:56:58;23.80;82.80
17495;DHT22;8864;51.970;4.614;2023-09-18T10:59:28;23.80;82.60
17495;DHT22;8864;51.970;4.614;2023-09-18T11:01:56;23.80;82.40
17495;DHT22;8864;51.970;4.614;2023-09-18T11:04:30;23.80;82.30
17495;DHT22;8864;51.970;4.614;2023-09-18T11:07:02;23.80;82.30
17495;DHT22;8864;51.970;4.614;2023-09-18T11:09:43;23.80;82.80
17495;DHT22;8864;51.970;4.614;2023-09-18T11:12:11;23.80;82.50
17495;DHT22;8864;51.970;4.614;2023-09-18T11:14:47;23.90;82.50
17495;DHT22;8864;51.970;4.614;2023-09-18T11:17:29;23.90;82.20
17495;DHT22;8864;51.970;4.614;2023-09-18T11:20:06;23.90;82.20
17495;DHT22;8864;51.970;4.614;2023-09-18T11:22:35;23.80;82.00
17495;DHT22;8864;51.970;4.614;2023-09-18T11:28:14;23.90;81.90
17495;DHT22;8864;51.970;4.614;2023-09-18T11:30:50;23.90;81.70
17495;DHT22;8864;51.970;4.614;2023-09-18T11:33:34;23.90;81.60
17495;DHT22;8864;51.970;4.614;2023-09-18T11:36:06;23.90;81.40
17495;DHT22;8864;51.970;4.614;2023-09-18T11:38:51;23.90;81.30
17495;DHT22;8864;51.970;4.614;2023-09-18T11:41:23;23.90;81.10
17495;DHT22;8864;51.970;4.614;2023-09-18T11:43:51;23.90;81.20
17495;DHT22;8864;51.970;4.614;2023-09-18T11:46:20;23.90;81.30
17495;DHT22;8864;51.970;4.614;2023-09-18T11:48:48;23.80;81.10
17495;DHT22;8864;51.970;4.614;2023-09-18T11:51:23;23.80;81.00
17495;DHT22;8864;51.970;4.614;2023-09-18T11:53:53;23.80;80.70
17495;DHT22;8864;51.970;4.614;2023-09-18T11:56:21;23.90;80.50
17495;DHT22;8864;51.970;4.614;2023-09-18T11:58:49;23.90;80.50
17495;DHT22;8864;51.970;4.614;2023-09-18T12:01:17;23.90;80.50
17495;DHT22;8864;51.970;4.614;2023-09-18T12:03:46;23.90;80.30
17495;DHT22;8864;51.970;4.614;2023-09-18T12:06:15;23.90;80.10
17495;DHT22;8864;51.970;4.614;2023-09-18T12:08:43;24.00;80.10
17495;DHT22;8864;51.970;4.614;2023-09-18T12:11:12;23.90;79.90
17495;DHT22;8864;51.970;4.614;2023-09-18T12:13:42;23.90;79.70
17495;DHT22;8864;51.970;4.614;2023-09-18T12:16:10;24.00;79.80
17495;DHT22;8864;51.970;4.614;2023-09-18T12:18:46;24.00;79.70
17495;DHT22;8864;51.970;4.614;2023-09-18T12:21:16;24.00;79.70
17495;DHT22;8864;51.970;4.614;2023-09-18T12:23:45;24.00;79.60
17495;DHT22;8864;51.970;4.614;2023-09-18T12:26:13;24.00;79.60
17495;DHT22;8864;51.970;4.614;2023-09-18T12:28:41;24.00;79.40
17495;DHT22;8864;51.970;4.614;2023-09-18T12:31:10;24.00;79.40
17495;DHT22;8864;51.970;4.614;2023-09-18T12:33:39;24.00;79.30
17495;DHT22;8864;51.970;4.614;2023-09-18T12:36:08;24.00;79.30
17495;DHT22;8864;51.970;4.614;2023-09-18T12:38:36;24.00;79.20
17495;DHT22;8864;51.970;4.614;2023-09-18T12:41:04;24.00;79.20
17495;DHT22;8864;51.970;4.614;2023-09-18T12:43:37;24.00;79.10
17495;DHT22;8864;51.970;4.614;2023-09-18T12:46:05;24.00;79.10
17495;DHT22;8864;51.970;4.614;2023-09-18T12:48:32;24.00;79.10
17495;DHT22;8864;51.970;4.614;2023-09-18T12:51:04;24.00;79.10
17495;DHT22;8864;51.970;4.614;2023-09-18T12:53:33;24.00;79.10
17495;DHT22;8864;51.970;4.614;2023-09-18T12:56:08;24.10;79.10
17495;DHT22;8864;51.970;4.614;2023-09-18T12:58:36;24.10;79.20
17495;DHT22;8864;51.970;4.614;2023-09-18T13:01:07;24.00;79.20
17495;DHT22;8864;51.970;4.614;2023-09-18T13:03:40;24.10;79.40
17495;DHT22;8864;51.970;4.614;2023-09-18T13:06:10;24.00;79.40
17495;DHT22;8864;51.970;4.614;2023-09-18T13:08:39;24.10;79.40
17495;DHT22;8864;51.970;4.614;2023-09-18T13:11:06;24.10;79.30
17495;DHT22;8864;51.970;4.614;2023-09-18T13:13:33;24.10;79.30
17495;DHT22;8864;51.970;4.614;2023-09-18T13:16:03;24.10;79.30
17495;DHT22;8864;51.970;4.614;2023-09-18T13:18:34;24.10;79.20
17495;DHT22;8864;51.970;4.614;2023-09-18T13:21:09;24.10;79.90
17495;DHT22;8864;51.970;4.614;2023-09-18T13:23:38;24.10;79.10
17495;DHT22;8864;51.970;4.614;2023-09-18T13:26:06;24.10;79.80
17495;DHT22;8864;51.970;4.614;2023-09-18T13:28:35;24.10;79.10
17495;DHT22;8864;51.970;4.614;2023-09-18T13:31:03;24.10;79.00
17495;DHT22;8864;51.970;4.614;2023-09-18T13:33:32;24.10;79.00
17495;DHT22;8864;51.970;4.614;2023-09-18T13:36:00;24.10;79.00
17495;DHT22;8864;51.970;4.614;2023-09-18T13:38:27;24.10;79.00
17495;DHT22;8864;51.970;4.614;2023-09-18T13:40:55;24.10;78.90
17495;DHT22;8864;51.970;4.614;2023-09-18T13:43:22;24.20;79.00
17495;DHT22;8864;51.970;4.614;2023-09-18T13:45:49;24.10;78.90
17495;DHT22;8864;51.970;4.614;2023-09-18T13:48:18;24.00;78.80
17495;DHT22;8864;51.970;4.614;2023-09-18T13:50:46;24.10;78.80
17495;DHT22;8864;51.970;4.614;2023-09-18T13:53:13;24.10;78.80
17495;DHT22;8864;51.970;4.614;2023-09-18T13:55:41;24.10;78.80
17495;DHT22;8864;51.970;4.614;2023-09-18T13:58:09;24.10;78.80
17495;DHT22;8864;51.970;4.614;2023-09-18T14:00:36;24.10;80.20
17495;DHT22;8864;51.970;4.614;2023-09-18T14:03:04;24.10;80.30
17495;DHT22;8864;51.970;4.614;2023-09-18T14:05:31;24.20;80.50
17495;DHT22;8864;51.970;4.614;2023-09-18T14:08:00;24.20;80.40
17495;DHT22;8864;51.970;4.614;2023-09-18T14:10:28;24.20;80.40
17495;DHT22;8864;51.970;4.614;2023-09-18T14:12:55;24.20;80.40
17495;DHT22;8864;51.970;4.614;2023-09-18T14:15:25;24.20;80.40
17495;DHT22;8864;51.970;4.614;2023-09-18T14:17:52;24.20;80.40
17495;DHT22;8864;51.970;4.614;2023-09-18T14:20:20;24.10;80.30
17495;DHT22;8864;51.970;4.614;2023-09-18T14:22:47;24.20;80.40
17495;DHT22;8864;51.970;4.614;2023-09-18T14:25:15;24.20;80.30
17495;DHT22;8864;51.970;4.614;2023-09-18T14:27:43;24.20;81.10
17495;DHT22;8864;51.970;4.614;2023-09-18T14:30:14;24.20;80.20
17495;DHT22;8864;51.970;4.614;2023-09-18T14:32:42;24.10;80.20
17495;DHT22;8864;51.970;4.614;2023-09-18T14:35:10;24.20;80.20
17495;DHT22;8864;51.970;4.614;2023-09-18T14:37:40;24.20;80.20
17495;DHT22;8864;51.970;4.614;2023-09-18T14:40:07;24.20;80.20
17495;DHT22;8864;51.970;4.614;2023-09-18T14:42:37;24.20;80.20
17495;DHT22;8864;51.970;4.614;2023-09-18T14:45:05;24.20;80.20
17495;DHT22;8864;51.970;4.614;2023-09-18T14:47:32;24.10;80.10
17495;DHT22;8864;51.970;4.614;2023-09-18T14:50:01;24.10;80.10
17495;DHT22;8864;51.970;4.614;2023-09-18T14:52:33;24.10;80.10
17495;DHT22;8864;51.970;4.614;2023-09-18T14:55:02;24.10;80.10
17495;DHT22;8864;51.970;4.614;2023-09-18T14:57:31;24.10;80.10
17495;DHT22;8864;51.970;4.614;2023-09-18T14:59:58;24.10;80.00
17495;DHT22;8864;51.970;4.614;2023-09-18T15:02:25;24.10;80.00
17495;DHT22;8864;51.970;4.614;2023-09-18T15:04:55;24.10;80.00
17495;DHT22;8864;51.970;4.614;2023-09-18T15:07:23;24.10;80.00
17495;DHT22;8864;51.970;4.614;2023-09-18T15:09:51;24.10;79.90
17495;DHT22;8864;51.970;4.614;2023-09-18T15:12:18;24.10;80.00
17495;DHT22;8864;51.970;4.614;2023-09-18T15:14:45;24.20;80.00
17495;DHT22;8864;51.970;4.614;2023-09-18T15:17:12;24.20;80.00
17495;DHT22;8864;51.970;4.614;2023-09-18T15:19:39;24.20;79.90
17495;DHT22;8864;51.970;4.614;2023-09-18T15:22:07;24.30;79.90
17495;DHT22;8864;51.970;4.614;2023-09-18T15:24:37;24.30;79.60
17495;DHT22;8864;51.970;4.614;2023-09-18T15:27:04;24.30;79.30
17495;DHT22;8864;51.970;4.614;2023-09-18T15:29:31;24.30;79.10
17495;DHT22;8864;51.970;4.614;2023-09-18T15:31:58;24.40;79.00
17495;DHT22;8864;51.970;4.614;2023-09-18T15:34:27;24.40;78.80
17495;DHT22;8864;51.970;4.614;2023-09-18T15:36:55;24.40;78.60
17495;DHT22;8864;51.970;4.614;2023-09-18T15:39:23;24.40;78.50
17495;DHT22;8864;51.970;4.614;2023-09-18T15:41:54;24.40;78.50
17495;DHT22;8864;51.970;4.614;2023-09-18T15:44:21;24.50;78.50
17495;DHT22;8864;51.970;4.614;2023-09-18T15:46:51;24.40;79.30
17495;DHT22;8864;51.970;4.614;2023-09-18T15:49:18;24.50;78.60
17495;DHT22;8864;51.970;4.614;2023-09-18T15:51:45;24.50;78.60
17495;DHT22;8864;51.970;4.614;2023-09-18T15:54:12;24.50;78.60
17495;DHT22;8864;51.970;4.614;2023-09-18T15:56:40;24.40;78.80